createdAt,value
2018-05-18T00:01:12.320Z,66.83
2018-05-18T00:03:39.988Z,66.31
2018-05-18T00:06:07.573Z,66.22
2018-05-18T00:08:35.065Z,66.83
2018-05-18T00:11:02.964Z,66.68
2018-05-18T00:13:30.496Z,66.99
2018-05-18T00:15:58.024Z,66.90
2018-05-18T00:18:25.957Z,66.38
2018-05-18T00:20:53.490Z,66.41
2018-05-18T00:23:21.193Z,66.33
2018-05-18T00:25:48.790Z,66.41
2018-05-18T00:28:16.353Z,66.12
2018-05-18T00:30:43.890Z,66.24
2018-05-18T00:33:11.616Z,66.00
2018-05-18T00:35:39.157Z,66.17
2018-05-18T00:38:06.684Z,66.22
2018-05-18T00:40:34.503Z,66.23
2018-05-18T00:43:02.048Z,66.22
2018-05-18T00:45:29.593Z,66.51
2018-05-18T00:47:57.598Z,66.08
2018-05-18T00:50:25.135Z,66.42
2018-05-18T00:52:52.664Z,66.44
2018-05-18T00:55:42.084Z,67.05
2018-05-18T00:58:10.169Z,66.82
2018-05-18T01:00:37.699Z,66.54
2018-05-18T01:03:05.261Z,66.38
2018-05-18T01:05:32.792Z,66.51
2018-05-18T01:08:00.373Z,66.74
2018-05-18T01:10:27.937Z,66.63
2018-05-18T01:12:55.473Z,66.63
2018-05-18T01:15:23.008Z,66.54
2018-05-18T01:17:50.748Z,66.51
2018-05-18T01:20:18.272Z,66.40
2018-05-18T01:22:45.809Z,66.41
2018-05-18T01:25:13.621Z,66.54
2018-05-18T01:27:41.146Z,66.67
2018-05-18T01:30:08.693Z,66.72
2018-05-18T01:32:36.257Z,67.36
2018-05-18T01:35:04.499Z,66.57
2018-05-18T01:37:32.027Z,66.72
2018-05-18T01:39:59.576Z,66.80
2018-05-18T01:42:27.112Z,66.39
2018-05-18T01:44:54.641Z,66.52
2018-05-18T01:47:23.205Z,66.40
2018-05-18T01:49:50.773Z,66.72
2018-05-18T01:52:18.284Z,66.71
2018-05-18T01:54:46.065Z,66.48
2018-05-18T01:57:13.597Z,66.53
2018-05-18T01:59:41.124Z,66.73
2018-05-18T02:02:09.048Z,66.56
2018-05-18T02:04:36.570Z,66.38
2018-05-18T02:07:04.093Z,66.44
2018-05-18T02:09:31.859Z,66.10
2018-05-18T02:11:59.379Z,65.99
2018-05-18T02:14:26.907Z,65.85
2018-05-18T02:16:54.460Z,65.89
2018-05-18T02:19:21.985Z,65.96
2018-05-18T02:21:49.513Z,66.01
2018-05-18T02:24:17.392Z,65.85
2018-05-18T02:26:44.920Z,66.13
2018-05-18T02:29:12.453Z,65.84
2018-05-18T02:31:40.196Z,66.22
2018-05-18T02:34:07.724Z,65.96
2018-05-18T02:36:35.254Z,65.95
2018-05-18T02:39:03.039Z,65.72
2018-05-18T02:41:30.609Z,65.71
2018-05-18T02:43:58.132Z,65.34
2018-05-18T02:46:25.944Z,65.22
2018-05-18T02:48:53.807Z,65.13
2018-05-18T02:51:21.710Z,64.96
2018-05-18T02:53:49.450Z,65.14
2018-05-18T02:56:18.141Z,64.89
2018-05-18T02:58:45.912Z,65.27
2018-05-18T03:01:13.617Z,65.28
2018-05-18T03:03:41.159Z,65.36
2018-05-18T03:06:08.694Z,65.33
2018-05-18T03:08:36.529Z,65.60
2018-05-18T03:11:04.056Z,65.60
2018-05-18T03:13:31.588Z,65.20
2018-05-18T03:15:59.312Z,65.57
2018-05-18T03:18:27.403Z,65.58
2018-05-18T03:20:54.934Z,65.25
2018-05-18T03:23:22.808Z,65.24
2018-05-18T03:25:50.330Z,65.13
2018-05-18T03:28:17.873Z,65.08
2018-05-18T03:30:45.692Z,65.28
2018-05-18T03:33:13.237Z,65.37
2018-05-18T03:35:40.763Z,65.33
2018-05-18T03:38:08.328Z,65.59
2018-05-18T03:40:35.852Z,65.31
2018-05-18T03:43:03.460Z,65.26
2018-05-18T03:45:31.260Z,65.31
2018-05-18T03:47:58.781Z,65.89
2018-05-18T03:50:26.309Z,65.71
2018-05-18T03:52:54.257Z,65.55
2018-05-18T03:55:21.828Z,66.10
2018-05-18T03:57:49.353Z,65.98
2018-05-18T04:00:17.120Z,65.91
2018-05-18T04:02:56.468Z,65.88
2018-05-18T04:05:36.117Z,65.84
2018-05-18T04:08:10.354Z,65.35
2018-05-18T04:10:37.928Z,65.38
2018-05-18T04:13:05.449Z,65.26
2018-05-18T04:15:32.972Z,64.99
2018-05-18T04:18:01.068Z,64.88
2018-05-18T04:20:28.592Z,65.19
2018-05-18T04:22:56.713Z,64.76
2018-05-18T04:25:24.479Z,65.11
2018-05-18T04:27:52.020Z,64.76
2018-05-18T04:30:19.619Z,65.04
2018-05-18T04:32:47.150Z,64.69
2018-05-18T04:35:14.673Z,64.83
2018-05-18T04:37:42.222Z,64.52
2018-05-18T04:40:10.021Z,64.27
2018-05-18T04:42:37.598Z,63.95
2018-05-18T04:45:05.125Z,63.70
2018-05-18T04:47:33.053Z,63.88
2018-05-18T04:50:00.581Z,63.57
2018-05-18T04:52:28.114Z,63.20
2018-05-18T04:54:55.909Z,63.26
2018-05-18T04:57:23.439Z,62.95
2018-05-18T04:59:50.965Z,63.22
2018-05-18T05:02:18.681Z,63.24
2018-05-18T05:04:46.207Z,62.85
2018-05-18T05:07:13.733Z,62.89
2018-05-18T05:09:41.304Z,63.19
2018-05-18T05:12:08.854Z,62.68
2018-05-18T05:14:36.380Z,62.36
2018-05-18T05:17:04.130Z,62.08
2018-05-18T05:19:31.661Z,61.87
2018-05-18T05:21:59.195Z,61.73
2018-05-18T05:24:26.908Z,61.28
2018-05-18T05:26:54.428Z,61.15
2018-05-18T05:29:21.956Z,61.30
2018-05-18T05:31:49.707Z,60.77
2018-05-18T05:34:17.236Z,60.22
2018-05-18T05:36:44.827Z,59.90
2018-05-18T05:39:12.572Z,59.19
2018-05-18T05:41:40.240Z,58.78
2018-05-18T05:44:07.774Z,58.43
2018-05-18T05:46:35.349Z,58.48
2018-05-18T05:49:03.954Z,58.11
2018-05-18T05:51:31.490Z,58.07
2018-05-18T05:53:59.686Z,57.95
2018-05-18T05:56:27.233Z,57.32
2018-05-18T05:58:54.756Z,56.73
2018-05-18T06:01:22.772Z,56.52
2018-05-18T06:03:50.291Z,55.96
2018-05-18T06:06:17.825Z,55.54
2018-05-18T06:08:45.537Z,54.66
2018-05-18T06:11:13.060Z,54.42
2018-05-18T06:13:40.596Z,53.22
2018-05-18T06:16:08.307Z,52.25
2018-05-18T06:18:35.832Z,51.78
2018-05-18T06:21:03.372Z,50.29
2018-05-18T06:23:31.192Z,50.20
2018-05-18T06:25:58.722Z,50.69
2018-05-18T06:28:26.256Z,49.55
2018-05-18T06:30:53.994Z,50.13
2018-05-18T06:33:21.541Z,49.34
2018-05-18T06:35:49.069Z,47.86
2018-05-18T06:38:17.388Z,47.94
2018-05-18T06:40:44.924Z,46.61
2018-05-18T06:43:12.445Z,44.54
2018-05-18T06:45:39.996Z,43.17
2018-05-18T06:48:07.529Z,41.61
2018-05-18T06:50:35.055Z,40.46
2018-05-18T06:53:02.851Z,39.78
2018-05-18T06:55:30.390Z,38.63
2018-05-18T06:57:57.916Z,38.31
2018-05-18T07:00:25.484Z,38.78
2018-05-18T07:02:53.017Z,39.60
2018-05-18T07:05:20.548Z,38.55
2018-05-18T07:07:48.133Z,39.21
2018-05-18T07:10:15.661Z,38.14
2018-05-18T07:12:43.205Z,38.58
2018-05-18T07:15:10.773Z,37.19
2018-05-18T07:17:38.303Z,37.90
2018-05-18T07:20:05.828Z,37.77
2018-05-18T07:22:34.060Z,36.17
2018-05-18T07:25:01.588Z,36.97
2018-05-18T07:27:29.118Z,37.70
2018-05-18T07:29:56.689Z,36.52
2018-05-18T07:32:24.213Z,36.75
2018-05-18T07:34:51.733Z,37.19
2018-05-18T07:37:20.352Z,37.27
2018-05-18T07:39:47.873Z,37.75
2018-05-18T07:42:15.403Z,38.57
2018-05-18T07:44:43.111Z,36.70
2018-05-18T07:47:10.637Z,38.59
2018-05-18T07:49:38.168Z,37.48
2018-05-18T07:52:05.891Z,36.69
2018-05-18T07:54:33.409Z,36.22
2018-05-18T07:57:00.928Z,36.06
2018-05-18T07:59:28.734Z,35.82
2018-05-18T08:01:56.216Z,35.75
2018-05-18T08:04:23.750Z,34.73
2018-05-18T08:06:51.322Z,36.22
2018-05-18T08:09:18.855Z,37.26
2018-05-18T08:11:46.393Z,36.12
2018-05-18T08:14:14.136Z,36.11
2018-05-18T08:16:41.668Z,36.61
2018-05-18T08:19:10.091Z,36.38
2018-05-18T08:21:38.543Z,35.92
2018-05-18T08:24:07.051Z,35.46
2018-05-18T08:26:34.581Z,34.60
2018-05-18T08:29:14.341Z,33.94
2018-05-18T08:31:41.864Z,33.44
2018-05-18T08:34:09.400Z,34.19
2018-05-18T08:36:37.121Z,34.56
2018-05-18T08:39:04.661Z,33.44
2018-05-18T08:41:33.281Z,34.16
2018-05-18T08:44:01.455Z,34.42
2018-05-18T08:46:28.985Z,32.76
2018-05-18T08:48:56.637Z,31.19
2018-05-18T08:51:24.419Z,29.77
2018-05-18T08:53:51.944Z,29.93
2018-05-18T08:56:19.473Z,30.91
2018-05-18T08:58:47.203Z,31.42
2018-05-18T09:01:14.729Z,30.29
2018-05-18T09:03:42.254Z,27.41
2018-05-18T09:06:10.718Z,28.64
2018-05-18T09:08:39.301Z,28.17
2018-05-18T09:11:06.835Z,28.34
2018-05-18T09:13:34.713Z,27.20
2018-05-18T09:16:02.228Z,26.23
2018-05-18T09:18:30.501Z,25.50
2018-05-18T09:20:58.218Z,27.00
2018-05-18T09:23:25.743Z,24.48
2018-05-18T09:25:53.299Z,25.44
2018-05-18T09:28:21.669Z,24.65
2018-05-18T09:30:49.197Z,25.57
2018-05-18T09:33:16.778Z,24.24
2018-05-18T09:35:44.485Z,25.19
2018-05-18T09:38:12.008Z,24.10
2018-05-18T09:40:39.532Z,22.82
2018-05-18T09:43:07.249Z,21.14
2018-05-18T09:45:34.785Z,21.50
2018-05-18T09:48:02.325Z,21.42
2018-05-18T09:50:30.048Z,20.54
2018-05-18T09:52:57.581Z,20.19
2018-05-18T09:55:25.276Z,19.69
2018-05-18T09:57:52.821Z,19.29
2018-05-18T10:00:20.344Z,19.45
2018-05-18T10:02:47.869Z,18.34
2018-05-18T10:05:15.713Z,17.30
2018-05-18T10:07:43.241Z,17.83
2018-05-18T10:10:10.767Z,16.90
2018-05-18T10:12:38.420Z,17.77
2018-05-18T10:15:05.960Z,17.56
2018-05-18T10:17:33.489Z,15.69
2018-05-18T10:20:01.197Z,16.34
2018-05-18T10:22:28.718Z,17.68
2018-05-18T10:24:56.252Z,18.34
2018-05-18T10:27:24.056Z,17.68
2018-05-18T10:29:51.584Z,17.86
2018-05-18T10:32:19.119Z,17.20
2018-05-18T10:34:46.689Z,15.33
2018-05-18T10:37:14.224Z,15.65
2018-05-18T10:39:41.780Z,15.61
2018-05-18T10:42:09.345Z,15.90
2018-05-18T10:44:36.973Z,14.92
2018-05-18T10:47:05.469Z,14.81
2018-05-18T10:49:33.501Z,13.61
2018-05-18T10:52:01.007Z,14.22
2018-05-18T10:54:28.529Z,14.87
2018-05-18T10:56:56.232Z,15.65
2018-05-18T10:59:23.789Z,15.37
2018-05-18T11:01:52.356Z,15.40
2018-05-18T11:04:20.109Z,17.50
2018-05-18T11:06:47.639Z,16.00
2018-05-18T11:09:15.161Z,14.30
2018-05-18T11:11:42.749Z,14.33
2018-05-18T11:14:10.358Z,14.73
2018-05-18T11:16:37.813Z,16.54
2018-05-18T11:19:05.676Z,13.67
2018-05-18T11:21:33.231Z,14.25
2018-05-18T11:24:00.753Z,14.81
2018-05-18T11:26:28.445Z,13.49
2018-05-18T11:28:55.980Z,12.61
2018-05-18T11:31:23.508Z,12.91
2018-05-18T11:33:51.059Z,13.32
2018-05-18T11:36:18.589Z,15.67
2018-05-18T11:38:46.108Z,13.79
2018-05-18T11:41:13.669Z,16.95
2018-05-18T11:43:41.193Z,16.34
2018-05-18T11:46:08.727Z,13.53
2018-05-18T11:48:36.477Z,14.70
2018-05-18T11:51:04.019Z,13.51
2018-05-18T11:53:31.550Z,12.69
2018-05-18T11:55:59.151Z,12.44
2018-05-18T11:58:26.685Z,13.79
2018-05-18T12:00:54.289Z,13.80
2018-05-18T12:03:22.001Z,13.45
2018-05-18T12:05:49.529Z,11.67
2018-05-18T12:08:17.120Z,12.24
2018-05-18T12:10:44.818Z,13.67
2018-05-18T12:13:12.341Z,14.10
2018-05-18T12:15:39.860Z,12.54
2018-05-18T12:18:07.420Z,13.85
2018-05-18T12:20:34.945Z,12.02
2018-05-18T12:23:02.480Z,12.91
2018-05-18T12:25:30.195Z,13.13
2018-05-18T12:27:57.726Z,12.89
2018-05-18T12:30:25.245Z,13.17
2018-05-18T12:32:52.817Z,12.58
2018-05-18T12:35:20.330Z,13.29
2018-05-18T12:37:48.405Z,12.42
2018-05-18T12:40:16.252Z,14.52
2018-05-18T12:42:43.779Z,15.90
2018-05-18T12:45:11.313Z,14.83
2018-05-18T12:47:39.233Z,15.08
2018-05-18T12:50:06.769Z,14.94
2018-05-18T12:52:35.212Z,13.48
2018-05-18T12:55:03.143Z,14.28
2018-05-18T12:57:30.692Z,13.37
2018-05-18T12:59:58.220Z,15.02
2018-05-18T13:02:25.868Z,17.22
2018-05-18T13:04:53.394Z,18.49
2018-05-18T13:07:20.911Z,17.04
2018-05-18T13:09:48.563Z,18.43
2018-05-18T13:12:16.096Z,16.66
2018-05-18T13:14:43.638Z,15.61
2018-05-18T13:17:11.499Z,16.39
2018-05-18T13:19:39.029Z,16.82
2018-05-18T13:22:06.565Z,16.33
2018-05-18T13:24:35.514Z,15.74
2018-05-18T13:27:03.050Z,14.06
2018-05-18T13:29:30.580Z,14.94
2018-05-18T13:31:58.268Z,14.99
2018-05-18T13:34:26.363Z,15.42
2018-05-18T13:36:53.884Z,15.79
2018-05-18T13:39:21.470Z,14.80
2018-05-18T13:41:48.993Z,16.07
2018-05-18T13:44:16.544Z,15.15
2018-05-18T13:46:44.130Z,14.48
2018-05-18T13:49:11.818Z,14.38
2018-05-18T13:51:39.389Z,13.88
2018-05-18T13:54:07.124Z,14.07
2018-05-18T13:56:34.653Z,13.76
2018-05-18T13:59:02.181Z,15.07
2018-05-18T14:01:29.735Z,13.37
2018-05-18T14:03:57.368Z,13.56
2018-05-18T14:06:25.966Z,13.95
2018-05-18T14:08:53.815Z,13.31
2018-05-18T14:11:21.495Z,14.05
2018-05-18T14:13:49.093Z,13.35
2018-05-18T14:16:16.668Z,14.29
2018-05-18T14:18:44.763Z,14.16
2018-05-18T14:21:12.346Z,14.95
2018-05-18T14:23:39.905Z,16.15
2018-05-18T14:26:07.514Z,16.83
2018-05-18T14:28:35.126Z,15.97
2018-05-18T14:31:02.990Z,15.39
2018-05-18T14:33:30.510Z,15.59
2018-05-18T14:35:58.046Z,15.51
2018-05-18T14:38:25.732Z,15.46
2018-05-18T14:40:53.333Z,16.25
2018-05-18T14:43:20.995Z,16.42
2018-05-18T14:45:48.640Z,17.25
2018-05-18T14:48:16.300Z,17.37
2018-05-18T14:50:43.893Z,17.22
2018-05-18T14:53:12.035Z,17.74
2018-05-18T14:55:39.557Z,17.52
2018-05-18T14:58:07.177Z,16.89
2018-05-18T15:00:34.853Z,17.34
2018-05-18T15:03:02.503Z,18.65
2018-05-18T15:05:30.266Z,18.72
2018-05-18T15:07:58.125Z,19.32
2018-05-18T15:10:25.787Z,19.91
2018-05-18T15:12:53.367Z,20.37
2018-05-18T15:15:21.350Z,20.62
2018-05-18T15:17:49.196Z,21.42
2018-05-18T15:20:17.314Z,21.91
2018-05-18T15:22:45.338Z,22.39
2018-05-18T15:25:12.981Z,23.54
2018-05-18T15:27:40.963Z,24.57
2018-05-18T15:30:08.696Z,25.29
2018-05-18T15:32:36.687Z,26.72
2018-05-18T15:35:05.068Z,27.15
2018-05-18T15:37:32.869Z,27.38
2018-05-18T15:40:00.455Z,27.32
2018-05-18T15:42:28.254Z,27.79
2018-05-18T15:44:57.052Z,28.00
2018-05-18T15:47:26.448Z,28.97
2018-05-18T15:49:54.790Z,29.34
2018-05-18T15:52:22.336Z,30.13
2018-05-18T15:54:49.852Z,29.83
2018-05-18T15:57:17.388Z,29.82
2018-05-18T15:59:45.150Z,30.30
2018-05-18T16:02:12.751Z,30.11
2018-05-18T16:04:40.273Z,30.39
2018-05-18T16:07:08.026Z,30.90
2018-05-18T16:09:35.549Z,31.33
2018-05-18T16:12:03.088Z,31.00
2018-05-18T16:14:30.657Z,31.60
2018-05-18T16:16:58.190Z,30.60
2018-05-18T16:19:25.712Z,31.37
2018-05-18T16:21:53.502Z,30.90
2018-05-18T16:24:21.101Z,30.90
2018-05-18T16:26:48.709Z,30.71
2018-05-18T16:29:16.470Z,31.15
2018-05-18T16:31:44.037Z,30.25
2018-05-18T16:34:11.576Z,30.61
2018-05-18T16:36:39.360Z,30.90
2018-05-18T16:39:06.971Z,30.86
2018-05-18T16:41:34.580Z,30.58
2018-05-18T16:44:02.159Z,30.26
2018-05-18T16:46:29.680Z,30.24
2018-05-18T16:48:57.377Z,30.86
2018-05-18T16:51:25.244Z,30.68
2018-05-18T16:53:53.399Z,31.00
2018-05-18T16:56:20.929Z,31.06
2018-05-18T16:58:48.620Z,31.85
2018-05-18T17:01:16.165Z,31.61
2018-05-18T17:03:43.719Z,31.17
2018-05-18T17:06:11.645Z,32.87
2018-05-18T17:08:39.278Z,32.97
2018-05-18T17:11:07.153Z,31.64
2018-05-18T17:13:34.885Z,31.91
2018-05-18T17:16:02.441Z,32.46
2018-05-18T17:18:30.024Z,33.12
2018-05-18T17:20:57.871Z,33.53
2018-05-18T17:23:25.397Z,33.55
2018-05-18T17:25:53.037Z,34.48
2018-05-18T17:28:20.817Z,34.76
2018-05-18T17:30:48.852Z,34.75
2018-05-18T17:33:16.392Z,34.90
2018-05-18T17:35:44.167Z,35.29
2018-05-18T17:38:12.004Z,35.45
2018-05-18T17:40:39.708Z,35.75
2018-05-18T17:43:08.594Z,35.87
2018-05-18T17:45:36.466Z,35.87
2018-05-18T17:48:04.332Z,36.13
2018-05-18T17:50:32.608Z,36.53
2018-05-18T17:53:00.365Z,36.47
2018-05-18T17:55:28.035Z,36.57
2018-05-18T17:57:55.902Z,36.70
2018-05-18T18:00:23.526Z,37.44
2018-05-18T18:02:51.429Z,37.39
2018-05-18T18:05:19.177Z,37.15
2018-05-18T18:07:46.959Z,37.28
2018-05-18T18:10:14.623Z,37.36
2018-05-18T18:12:42.681Z,37.44
2018-05-18T18:15:10.559Z,37.46
2018-05-18T18:17:38.422Z,38.15
2018-05-18T18:20:06.599Z,38.26
2018-05-18T18:22:34.484Z,38.42
2018-05-18T18:25:02.331Z,38.57
2018-05-18T18:27:30.189Z,38.64
2018-05-18T18:29:57.966Z,38.91
2018-05-18T18:32:25.606Z,39.45
2018-05-18T18:34:53.387Z,39.60
2018-05-18T18:37:21.150Z,39.53
2018-05-18T18:39:48.746Z,39.82
2018-05-18T18:42:16.968Z,40.13
2018-05-18T18:44:44.751Z,40.26
2018-05-18T18:47:12.316Z,41.04
2018-05-18T18:49:39.960Z,41.27
2018-05-18T18:52:07.549Z,42.00
2018-05-18T18:54:35.499Z,42.56
2018-05-18T18:57:03.346Z,43.07
2018-05-18T18:59:30.877Z,43.10
2018-05-18T19:01:58.689Z,43.94
2018-05-18T19:04:26.969Z,43.92
2018-05-18T19:06:54.797Z,44.27
2018-05-18T19:09:22.565Z,44.49
2018-05-18T19:11:50.669Z,44.42
2018-05-18T19:14:18.999Z,45.41
2018-05-18T19:16:46.811Z,45.27
2018-05-18T19:19:14.780Z,45.28
2018-05-18T19:21:42.626Z,45.51
2018-05-18T19:24:10.570Z,45.94
2018-05-18T19:26:39.712Z,45.68
2018-05-18T19:29:07.952Z,45.79
2018-05-18T19:31:36.243Z,46.19
2018-05-18T19:34:04.130Z,46.44
2018-05-18T19:36:32.389Z,46.71
2018-05-18T19:39:00.272Z,46.70
2018-05-18T19:41:28.242Z,47.26
2018-05-18T19:43:56.107Z,47.11
2018-05-18T19:46:23.921Z,47.00
2018-05-18T19:48:52.150Z,47.29
2018-05-18T19:51:20.015Z,47.46
2018-05-18T19:53:49.727Z,47.65
2018-05-18T19:56:17.864Z,48.10
2018-05-18T19:58:45.803Z,48.25
2018-05-18T20:01:13.544Z,48.48
2018-05-18T20:03:42.012Z,48.17
2018-05-18T20:06:10.154Z,49.52
2018-05-18T20:08:38.358Z,49.38
2018-05-18T20:11:06.774Z,49.99
2018-05-18T20:13:35.119Z,50.38
2018-05-18T20:16:02.997Z,50.55
2018-05-18T20:18:31.375Z,50.64
2018-05-18T20:20:59.337Z,51.35
2018-05-18T20:23:27.198Z,51.17
2018-05-18T20:25:56.291Z,51.35
2018-05-18T20:28:24.158Z,51.82
2018-05-18T20:30:52.744Z,51.97
2018-05-18T20:33:20.815Z,52.40
2018-05-18T20:35:48.884Z,52.42
2018-05-18T20:38:16.952Z,52.48
2018-05-18T20:40:44.603Z,52.91
2018-05-18T20:43:12.484Z,53.41
2018-05-18T20:45:40.350Z,53.56
2018-05-18T20:48:08.729Z,54.23
2018-05-18T20:50:36.988Z,54.20
2018-05-18T20:53:04.872Z,54.58
2018-05-18T20:55:33.676Z,54.40
2018-05-18T20:58:01.494Z,54.42
2018-05-18T21:00:29.496Z,54.22
2018-05-18T21:02:57.977Z,54.59
2018-05-18T21:05:25.961Z,54.91
2018-05-18T21:07:53.812Z,55.40
2018-05-18T21:10:21.679Z,55.07
2018-05-18T21:12:49.752Z,55.49
2018-05-18T21:15:17.522Z,55.60
2018-05-18T21:17:45.691Z,55.93
2018-05-18T21:20:13.819Z,55.75
2018-05-18T21:22:41.685Z,55.92
2018-05-18T21:25:09.598Z,55.92
2018-05-18T21:27:37.203Z,55.99
2018-05-18T21:30:05.021Z,56.39
2018-05-18T21:32:33.092Z,56.80
2018-05-18T21:35:01.877Z,56.59
2018-05-18T21:37:29.542Z,56.71
2018-05-18T21:39:57.412Z,56.65
2018-05-18T21:42:25.174Z,56.61
2018-05-18T21:44:53.363Z,56.97
2018-05-18T21:47:21.156Z,57.31
2018-05-18T21:49:48.923Z,56.84
2018-05-18T21:52:16.594Z,56.86
2018-05-18T21:54:44.313Z,56.95
2018-05-18T21:57:11.965Z,57.01
2018-05-18T21:59:39.611Z,57.37
2018-05-18T22:02:07.287Z,57.25
2018-05-18T22:04:34.827Z,57.28
2018-05-18T22:07:02.611Z,57.60
2018-05-18T22:09:30.477Z,57.75
2018-05-18T22:11:58.021Z,57.43
2018-05-18T22:14:25.544Z,57.32
2018-05-18T22:16:53.142Z,58.63
2018-05-18T22:19:20.665Z,57.93
2018-05-18T22:21:48.189Z,58.22
2018-05-18T22:24:15.749Z,58.26
2018-05-18T22:26:43.264Z,58.67
2018-05-18T22:29:10.805Z,58.26
2018-05-18T22:31:38.440Z,58.69
2018-05-18T22:34:05.972Z,58.88
2018-05-18T22:36:33.498Z,59.11
2018-05-18T22:39:01.589Z,58.49
2018-05-18T22:41:29.170Z,58.40
2018-05-18T22:43:56.713Z,58.81
2018-05-18T22:46:24.566Z,58.77
2018-05-18T22:48:52.116Z,59.11
2018-05-18T22:51:20.559Z,59.15
2018-05-18T22:53:48.264Z,58.95
2018-05-18T22:56:15.792Z,59.04
2018-05-18T22:58:43.328Z,59.08
2018-05-18T23:01:11.052Z,59.32
2018-05-18T23:03:38.588Z,59.82
2018-05-18T23:06:06.138Z,59.71
2018-05-18T23:08:33.829Z,59.35
2018-05-18T23:11:01.361Z,59.58
2018-05-18T23:13:28.892Z,59.49
2018-05-18T23:15:56.613Z,59.85
2018-05-18T23:18:24.155Z,60.28
2018-05-18T23:20:51.689Z,60.46
2018-05-18T23:23:19.264Z,60.48
2018-05-18T23:25:46.897Z,60.81
2018-05-18T23:28:14.354Z,61.23
2018-05-18T23:30:42.281Z,60.90
2018-05-18T23:33:09.834Z,61.10
2018-05-18T23:35:37.363Z,61.21
2018-05-18T23:38:05.054Z,61.27
2018-05-18T23:40:32.584Z,61.21
2018-05-18T23:43:00.124Z,61.06
2018-05-18T23:45:28.020Z,60.96
2018-05-18T23:47:55.549Z,60.98
2018-05-18T23:50:23.081Z,61.02
2018-05-18T23:52:50.657Z,61.13
2018-05-18T23:55:18.184Z,60.91
2018-05-18T23:57:45.712Z,61.28
